Aeroporto :
LOGIN :

Iscrizione | Disclaimer

   EN    FR    IT 

 










Sommario :    VFR   VFR Marginale   IFR   IFR Intensivo   IFR Molto Intensivo
Visibilità : 
Base nubi : 
>= 8 km
>= 3000ft
5 / 8 km
1000 / 3000 ft
1500m / 5 km
500 / 1000 ft
800 / 1500m
200 / 500 ft
< 800m
< 200 ft
Simboli :   Temporali  Nebbia  Neve Forte  Precipitazioni Forti  Vento > 20 kt
SIGMETs :   Varie  Temporali  Ghiacco  Turbolenza  Onda orograficha  Ceneri Vulcaniche






- Altitudine del aeroporto : 238 ft
- Codice IATA : FAB


EGLF - Farnborough

ULTIMO METAR :
  • 200120Z AUTO 16002KT 9999 BKN030/// OVC041/// 05/03 Q1014

METARs OBSOLETI :
  • 200050Z AUTO 14002KT 9999 FEW026/// BKN038/// 04/03 Q1014
  • 200020Z AUTO 14003KT 9999 OVC039/// 05/03 Q1014
  • 192350Z AUTO 16004KT 9999 FEW038/// OVC046/// 05/03 Q1015
  • 192320Z AUTO 15004KT 9999 OVC044/// 05/03 Q1015
  • 192250Z AUTO 15005KT 9999 FEW022/// OVC048/// 05/03 Q1015

Previsioni scadute.
ATIS : +44 09063 800 400 (*282)



MetMap, La meteo Aeronautica in un colpo d'occhio ! - Copyright ORBIFLY Dicembre 2007 - Disclaimer

ORBIFLY MET'MAP TEAM :

Programmazione e sviluppo : Alexandra Zaïnal
Concezione e sviluppo : Baudouin d'Aumeries
Co-Programmazione e sviluppo : Marc-Olivier Méhu
Supporto tecnico e logistico : Manuel Goepfert
Aiuto per la traduzione : Arnaldo La Scala

Contatto : metmap@orbifly.com




FONTI E CREDITI :

   NOAA